KESC/ESC METAR and TAF weather

Enter ICAO airport designator
Station Type Date Time Source
KESC METAR 2020/11/27 14:56 UTC NOAA

KESC 271456Z AUTO 23007KT 10SM OVC022 01/M03 A3001 RMK AO2 SLP171 T00111033 56004 FZRANO


Station Type Date Time Source
KESC Decoded METAR 2020/11/27 14:56 UTC NOAA

Escanaba, MI, United States (KESC) 45-45N 087-02W 187M
Nov 27, 2020 - 09:56 AM EST / 2020.11.27 1456 UTC
Wind: from the SW (230 degrees) at 8 MPH (7 KT):0
Visibility: 10 mile(s):0
Sky conditions: overcast
Temperature: 34.0 F (1.1 C)
Windchill: 26 F (-3 C):1
Dew Point: 26.1 F (-3.3 C)
Relative Humidity: 72%
Pressure (altimeter): 30.01 in. Hg (1016 hPa)
Pressure tendency: 0.01 inches (0.4 hPa) lower than three hours ago
ob: KESC 271456Z AUTO 23007KT 10SM OVC022 01/M03 A3001 RMK AO2 SLP171 T00111033 56004 FZRANO
cycle: 15

Station Type Date Time Source
KESC TAF UTC NOAA

Error!

Example: see airport list